sensor_id;sensor_type;location;lat;lon;timestamp;pressure;altitude;pressure_sealevel;temperature
72675;BMP280;60752;53.962;9.614;2023-05-10T00:00:45;58364.19;;;4.72
72675;BMP280;60752;53.962;9.614;2023-05-10T00:30:47;58374.03;;;4.72
72675;BMP280;60752;53.962;9.614;2023-05-10T01:00:50;58354.34;;;4.72
72675;BMP280;60752;53.962;9.614;2023-05-10T01:31:08;58395.69;;;4.72
72675;BMP280;60752;53.962;9.614;2023-05-10T02:01:15;58379.94;;;4.72
72675;BMP280;60752;53.962;9.614;2023-05-10T02:31:18;58362.22;;;4.72
72675;BMP280;60752;53.962;9.614;2023-05-10T03:01:20;58411.44;;;4.72
72675;BMP280;60752;53.962;9.614;2023-05-10T03:31:22;58376.00;;;4.72
72675;BMP280;60752;53.962;9.614;2023-05-10T04:01:27;58413.41;;;4.72
72675;BMP280;60752;53.962;9.614;2023-05-10T04:31:29;58389.78;;;4.72
72675;BMP280;60752;53.962;9.614;2023-05-10T05:01:31;58413.41;;;4.72
72675;BMP280;60752;53.962;9.614;2023-05-10T05:31:33;58444.91;;;4.72
72675;BMP280;60752;53.962;9.614;2023-05-10T06:01:34;58448.84;;;4.72
72675;BMP280;60752;53.962;9.614;2023-05-10T06:31:37;58421.28;;;4.72
72675;BMP280;60752;53.962;9.614;2023-05-10T07:01:39;58442.94;;;4.72
72675;BMP280;60752;53.962;9.614;2023-05-10T07:31:41;58454.75;;;4.72
72675;BMP280;60752;53.962;9.614;2023-05-10T08:01:43;58458.69;;;4.72
72675;BMP280;60752;53.962;9.614;2023-05-10T08:31:45;58460.66;;;4.72
72675;BMP280;60752;53.962;9.614;2023-05-10T09:01:48;58429.16;;;4.72
72675;BMP280;60752;53.962;9.614;2023-05-10T09:31:51;58427.19;;;4.72
72675;BMP280;60752;53.962;9.614;2023-05-10T10:01:55;58419.31;;;4.72
72675;BMP280;60752;53.962;9.614;2023-05-10T10:32:06;58423.25;;;4.72
72675;BMP280;60752;53.962;9.614;2023-05-10T11:02:09;58425.22;;;4.72
72675;BMP280;60752;53.962;9.614;2023-05-10T11:32:11;58393.72;;;4.72
72675;BMP280;60752;53.962;9.614;2023-05-10T12:02:13;58389.78;;;4.72
72675;BMP280;60752;53.962;9.614;2023-05-10T12:32:15;58372.06;;;4.72
72675;BMP280;60752;53.962;9.614;2023-05-10T13:02:25;58366.16;;;4.72
72675;BMP280;60752;53.962;9.614;2023-05-10T13:32:29;58389.78;;;4.72
72675;BMP280;60752;53.962;9.614;2023-05-10T14:02:31;58352.38;;;4.72
72675;BMP280;60752;53.962;9.614;2023-05-10T14:32:33;58364.19;;;4.72
72675;BMP280;60752;53.962;9.614;2023-05-10T15:02:34;58350.41;;;4.72
72675;BMP280;60752;53.962;9.614;2023-05-10T15:32:36;58374.03;;;4.72
72675;BMP280;60752;53.962;9.614;2023-05-10T16:02:38;58362.22;;;4.72
72675;BMP280;60752;53.962;9.614;2023-05-10T16:32:40;58366.16;;;4.72
72675;BMP280;60752;53.962;9.614;2023-05-10T17:02:42;58366.16;;;4.72
72675;BMP280;60752;53.962;9.614;2023-05-10T17:32:44;58374.03;;;4.72
72675;BMP280;60752;53.962;9.614;2023-05-10T18:02:45;58356.31;;;4.72
72675;BMP280;60752;53.962;9.614;2023-05-10T18:32:47;58362.22;;;4.72
72675;BMP280;60752;53.962;9.614;2023-05-10T19:02:49;58340.56;;;4.72
72675;BMP280;60752;53.962;9.614;2023-05-10T19:32:51;58366.16;;;4.72
72675;BMP280;60752;53.962;9.614;2023-05-10T20:02:53;58356.31;;;4.72
72675;BMP280;60752;53.962;9.614;2023-05-10T20:32:55;58350.41;;;4.72
72675;BMP280;60752;53.962;9.614;2023-05-10T21:02:56;58358.28;;;4.72
72675;BMP280;60752;53.962;9.614;2023-05-10T21:32:58;58377.97;;;4.72
72675;BMP280;60752;53.962;9.614;2023-05-10T22:03:00;58401.59;;;4.72
72675;BMP280;60752;53.962;9.614;2023-05-10T22:33:02;58376.00;;;4.72
72675;BMP280;60752;53.962;9.614;2023-05-10T23:03:04;58389.78;;;4.72
72675;BMP280;60752;53.962;9.614;2023-05-10T23:33:06;58360.25;;;4.72
